createdAt,value
2023-02-16T00:01:46.181Z,41.92
2023-02-16T00:04:19.197Z,39.65
2023-02-16T00:06:47.910Z,43.00
2023-02-16T00:09:16.748Z,40.90
2023-02-16T00:12:11.138Z,46.15
2023-02-16T00:14:40.809Z,54.85
2023-02-16T00:17:13.162Z,70.40
2023-02-16T00:19:43.232Z,69.00
2023-02-16T00:22:12.187Z,69.82
2023-02-16T00:24:40.478Z,77.05
2023-02-16T00:27:16.510Z,61.72
2023-02-16T00:29:45.998Z,54.15
2023-02-16T00:32:15.955Z,61.30
2023-02-16T00:34:45.779Z,60.25
2023-02-16T00:37:14.975Z,58.10
2023-02-16T00:39:45.141Z,54.10
2023-02-16T00:42:18.569Z,50.65
2023-02-16T00:44:49.925Z,51.60
2023-02-16T00:47:22.594Z,53.85
2023-02-16T00:49:53.210Z,48.80
2023-02-16T00:52:32.025Z,46.13
2023-02-16T00:55:01.478Z,44.50
2023-02-16T00:57:34.004Z,38.00
2023-02-16T01:00:06.841Z,39.00
2023-02-16T01:02:37.098Z,38.40
2023-02-16T01:05:05.715Z,43.53
2023-02-16T01:07:51.321Z,40.03
2023-02-16T01:10:37.801Z,38.70
2023-02-16T01:13:06.789Z,37.38
2023-02-16T01:15:36.844Z,36.85
2023-02-16T01:18:06.846Z,38.17
2023-02-16T01:20:36.983Z,36.28
2023-02-16T01:23:05.367Z,37.03
2023-02-16T01:25:33.940Z,41.30
2023-02-16T01:28:02.254Z,41.78
2023-02-16T01:30:30.936Z,40.17
2023-02-16T01:32:59.440Z,43.45
2023-02-16T01:35:32.464Z,45.53
2023-02-16T01:38:00.903Z,42.08
2023-02-16T01:40:39.284Z,42.70
2023-02-16T01:43:18.475Z,40.63
2023-02-16T01:45:52.278Z,42.63
2023-02-16T01:48:25.809Z,46.05
2023-02-16T01:51:00.964Z,38.33
2023-02-16T01:53:34.408Z,39.55
2023-02-16T01:56:06.837Z,42.97
2023-02-16T01:58:41.204Z,48.28
2023-02-16T02:01:37.447Z,40.80
2023-02-16T02:04:34.903Z,43.53
2023-02-16T02:07:04.610Z,42.38
2023-02-16T02:09:40.302Z,37.83
2023-02-16T02:12:18.350Z,42.50
2023-02-16T02:14:48.102Z,43.75
2023-02-16T02:17:20.990Z,42.53
2023-02-16T02:20:00.709Z,41.60
2023-02-16T02:23:12.530Z,37.60
2023-02-16T02:26:26.713Z,38.20
2023-02-16T02:29:07.849Z,42.97
2023-02-16T02:31:48.894Z,45.85
2023-02-16T02:34:26.019Z,44.10
2023-02-16T02:37:03.342Z,42.65
2023-02-16T02:39:39.175Z,50.85
2023-02-16T02:42:15.301Z,46.33
2023-02-16T02:44:54.098Z,45.95
2023-02-16T02:47:23.264Z,46.35
2023-02-16T02:49:52.427Z,51.50
2023-02-16T02:52:21.870Z,56.08
2023-02-16T02:55:08.449Z,62.13
2023-02-16T02:57:59.941Z,64.55
2023-02-16T03:00:43.907Z,64.03
2023-02-16T03:03:17.112Z,68.07
2023-02-16T03:05:49.977Z,52.38
2023-02-16T03:08:23.417Z,56.58
2023-02-16T03:11:14.121Z,56.05
2023-02-16T03:13:47.734Z,50.85
2023-02-16T03:16:23.201Z,47.78
2023-02-16T03:19:09.143Z,53.08
2023-02-16T03:21:55.177Z,48.42
2023-02-16T03:24:45.481Z,42.55
2023-02-16T03:27:32.919Z,39.97
2023-02-16T03:30:02.501Z,40.50
2023-02-16T03:32:32.322Z,40.75
2023-02-16T03:35:00.903Z,39.95
2023-02-16T03:37:29.193Z,43.55
2023-02-16T03:40:14.984Z,41.90
2023-02-16T03:42:50.864Z,47.17
2023-02-16T03:45:20.133Z,42.45
2023-02-16T03:47:49.751Z,44.75
2023-02-16T03:50:18.526Z,53.55
2023-02-16T03:52:46.744Z,48.05
2023-02-16T03:55:15.617Z,45.92
2023-02-16T03:57:43.838Z,49.95
2023-02-16T04:00:14.267Z,46.08
2023-02-16T04:02:42.514Z,46.78
2023-02-16T04:05:12.185Z,49.75
2023-02-16T04:07:40.435Z,46.30
2023-02-16T04:10:08.958Z,50.33
2023-02-16T04:12:36.298Z,52.42
2023-02-16T04:15:06.535Z,46.22
2023-02-16T04:17:34.910Z,49.05
2023-02-16T04:20:03.547Z,41.50
2023-02-16T04:22:33.106Z,42.78
2023-02-16T04:25:01.494Z,44.35
2023-02-16T04:27:31.799Z,42.25
2023-02-16T04:30:00.330Z,40.67
2023-02-16T04:32:28.693Z,40.25
2023-02-16T04:34:57.046Z,41.05
2023-02-16T04:37:25.279Z,44.47
2023-02-16T04:39:54.954Z,39.25
2023-02-16T04:42:23.262Z,41.35
2023-02-16T04:44:51.608Z,36.20
2023-02-16T04:47:20.277Z,42.80
2023-02-16T04:49:50.306Z,37.85
2023-02-16T04:52:25.200Z,34.97
2023-02-16T04:54:55.016Z,34.72
2023-02-16T04:57:24.381Z,37.80
2023-02-16T04:59:52.892Z,43.67
2023-02-16T05:02:21.164Z,39.60
2023-02-16T05:04:49.561Z,36.40
2023-02-16T05:07:17.823Z,39.35
2023-02-16T05:09:46.208Z,36.53
2023-02-16T05:12:32.995Z,35.72
2023-02-16T05:15:01.367Z,39.38
2023-02-16T05:17:29.820Z,33.83
2023-02-16T05:20:01.690Z,35.33
2023-02-16T05:22:33.401Z,47.03
2023-02-16T05:25:01.845Z,36.85
2023-02-16T05:27:32.207Z,39.65
2023-02-16T05:30:00.815Z,41.50
2023-02-16T05:32:29.216Z,40.17
2023-02-16T05:34:57.697Z,38.55
2023-02-16T05:37:25.933Z,41.72
2023-02-16T05:39:54.265Z,38.50
2023-02-16T05:42:22.450Z,41.15
2023-02-16T05:44:52.479Z,44.25
2023-02-16T05:47:20.682Z,50.40
2023-02-16T05:49:49.037Z,37.63
2023-02-16T05:52:17.328Z,37.05
2023-02-16T05:54:45.664Z,47.70
2023-02-16T05:57:13.892Z,41.50
2023-02-16T05:59:42.248Z,42.20
2023-02-16T06:02:11.752Z,45.17
2023-02-16T06:04:40.119Z,38.80
2023-02-16T06:07:08.352Z,39.60
2023-02-16T06:09:36.765Z,40.78
2023-02-16T06:12:05.661Z,50.30
2023-02-16T06:14:34.308Z,45.78
2023-02-16T06:17:02.534Z,47.95
2023-02-16T06:19:32.449Z,46.60
2023-02-16T06:22:00.667Z,44.95
2023-02-16T06:24:29.638Z,45.15
2023-02-16T06:26:58.075Z,44.03
2023-02-16T06:29:26.672Z,42.72
2023-02-16T06:31:55.031Z,44.47
2023-02-16T06:34:23.755Z,43.72
2023-02-16T06:36:53.279Z,39.50
2023-02-16T06:39:21.706Z,37.97
2023-02-16T06:41:49.914Z,36.85
2023-02-16T06:44:18.736Z,33.13
2023-02-16T06:46:48.695Z,38.95
2023-02-16T06:49:19.407Z,35.20
2023-02-16T06:51:48.613Z,35.22
2023-02-16T06:54:19.164Z,31.95
2023-02-16T06:56:47.455Z,33.30
2023-02-16T06:59:15.808Z,36.45
2023-02-16T07:01:45.463Z,32.95
2023-02-16T07:04:14.018Z,31.67
2023-02-16T07:06:42.679Z,33.33
2023-02-16T07:09:12.758Z,33.42
2023-02-16T07:11:42.532Z,35.22
2023-02-16T07:14:10.986Z,37.15
2023-02-16T07:16:39.486Z,37.58
2023-02-16T07:19:08.138Z,38.97
2023-02-16T07:21:36.705Z,37.03
2023-02-16T07:24:05.260Z,36.90
2023-02-16T07:26:33.679Z,44.15
2023-02-16T07:29:03.173Z,42.22
2023-02-16T07:31:31.587Z,38.10
2023-02-16T07:33:59.960Z,36.95
2023-02-16T07:36:28.368Z,38.20
2023-02-16T07:38:56.593Z,39.22
2023-02-16T07:41:24.967Z,40.85
2023-02-16T07:43:53.135Z,38.00
2023-02-16T07:46:22.899Z,39.33
2023-02-16T07:48:51.807Z,34.80
2023-02-16T07:51:24.589Z,33.22
2023-02-16T07:53:53.166Z,32.05
2023-02-16T07:56:22.359Z,36.60
2023-02-16T07:58:52.991Z,31.13
2023-02-16T08:01:23.041Z,28.42
2023-02-16T08:03:51.325Z,30.25
2023-02-16T08:06:20.141Z,31.02
2023-02-16T08:08:48.908Z,30.27
2023-02-16T08:11:19.524Z,30.85
2023-02-16T08:13:48.371Z,32.80
2023-02-16T08:16:18.348Z,30.80
2023-02-16T08:18:48.016Z,31.83
2023-02-16T08:21:18.020Z,34.05
2023-02-16T08:23:48.878Z,31.42
2023-02-16T08:26:18.638Z,29.65
2023-02-16T08:28:48.030Z,30.48
2023-02-16T08:31:18.885Z,31.88
2023-02-16T08:33:48.998Z,32.85
2023-02-16T08:36:23.559Z,34.17
2023-02-16T08:38:52.432Z,34.28
2023-02-16T08:41:22.306Z,36.08
2023-02-16T08:43:52.243Z,32.47
2023-02-16T08:46:21.521Z,34.42
2023-02-16T08:48:51.133Z,38.33
2023-02-16T08:51:20.715Z,38.05
2023-02-16T08:53:49.431Z,33.20
2023-02-16T08:56:17.875Z,33.97
2023-02-16T08:58:46.127Z,33.85
2023-02-16T09:01:16.359Z,30.60
2023-02-16T09:03:46.637Z,30.85
2023-02-16T09:06:20.303Z,29.90
2023-02-16T09:08:53.565Z,29.02
2023-02-16T09:11:22.947Z,29.52
2023-02-16T09:13:51.983Z,35.67
2023-02-16T09:16:23.562Z,36.38
2023-02-16T09:18:53.191Z,46.67
2023-02-16T09:21:25.533Z,36.70
2023-02-16T09:23:57.681Z,32.15
2023-02-16T09:26:27.760Z,38.35
2023-02-16T09:28:58.791Z,36.38
2023-02-16T09:31:29.766Z,39.33
2023-02-16T09:34:00.937Z,39.63
2023-02-16T09:36:31.920Z,38.63
2023-02-16T09:39:00.645Z,38.33
2023-02-16T09:41:33.673Z,38.15
2023-02-16T09:44:11.647Z,39.28
2023-02-16T09:46:42.000Z,35.90
2023-02-16T09:49:24.910Z,35.10
2023-02-16T09:52:03.545Z,33.38
2023-02-16T09:54:40.301Z,34.88
2023-02-16T09:57:17.489Z,36.80
2023-02-16T09:59:53.016Z,37.95
2023-02-16T10:02:35.505Z,38.92
2023-02-16T10:05:18.154Z,36.78
2023-02-16T10:07:57.270Z,37.20
2023-02-16T10:10:29.560Z,35.97
2023-02-16T10:13:04.594Z,36.50
2023-02-16T10:15:35.264Z,35.35
2023-02-16T10:18:09.993Z,39.20
2023-02-16T10:20:40.189Z,39.72
2023-02-16T10:23:23.852Z,34.70
2023-02-16T10:25:57.650Z,40.78
2023-02-16T10:28:34.022Z,35.25
2023-02-16T10:31:05.929Z,37.90
2023-02-16T10:33:43.116Z,37.40
2023-02-16T10:36:18.313Z,42.33
2023-02-16T10:38:55.747Z,40.08
2023-02-16T10:41:32.858Z,36.03
2023-02-16T10:44:09.017Z,34.60
2023-02-16T10:46:41.710Z,34.92
2023-02-16T10:49:12.860Z,36.88
2023-02-16T10:51:43.714Z,32.75
2023-02-16T10:54:19.468Z,37.70
2023-02-16T10:56:54.165Z,63.55
2023-02-16T10:59:25.074Z,35.97
2023-02-16T11:01:55.475Z,39.28
2023-02-16T11:04:39.680Z,34.72
2023-02-16T11:07:10.110Z,35.38
2023-02-16T11:09:42.037Z,35.75
2023-02-16T11:12:26.745Z,34.88
2023-02-16T11:14:58.444Z,33.85
2023-02-16T11:17:27.766Z,37.03
2023-02-16T11:20:01.907Z,31.10
2023-02-16T11:22:34.817Z,32.50
2023-02-16T11:25:25.527Z,36.67
2023-02-16T11:27:55.989Z,34.40
2023-02-16T11:30:35.867Z,35.63
2023-02-16T11:33:06.979Z,37.47
2023-02-16T11:35:44.402Z,38.28
2023-02-16T11:38:28.363Z,34.83
2023-02-16T11:40:59.513Z,35.40
2023-02-16T11:43:30.061Z,38.05
2023-02-16T11:46:05.289Z,37.08
2023-02-16T11:48:34.581Z,37.10
2023-02-16T11:51:05.345Z,41.28
2023-02-16T11:53:36.969Z,36.25
2023-02-16T11:56:22.281Z,38.22
2023-02-16T11:59:13.900Z,37.05
2023-02-16T13:20:33.514Z,31.02
2023-02-16T16:13:20.144Z,42.63
2023-02-16T16:22:18.328Z,49.38
2023-02-16T16:26:15.221Z,45.40
2023-02-16T16:29:04.801Z,45.72
2023-02-16T16:32:51.775Z,43.35
2023-02-16T16:36:24.708Z,45.85
2023-02-16T16:39:26.343Z,46.28
2023-02-16T16:42:29.139Z,50.08
2023-02-16T16:45:07.678Z,51.25
2023-02-16T16:47:44.372Z,53.40
2023-02-16T16:50:39.640Z,53.30
2023-02-16T16:53:41.049Z,58.22
2023-02-16T16:56:26.283Z,54.75
2023-02-16T17:02:06.441Z,58.10
2023-02-16T17:04:38.269Z,59.00
2023-02-16T17:07:07.766Z,57.13
2023-02-16T17:09:36.440Z,53.75
2023-02-16T17:12:07.176Z,43.78
2023-02-16T17:14:36.074Z,42.22
2023-02-16T17:17:06.128Z,46.15
2023-02-16T17:19:34.766Z,39.83
2023-02-16T17:22:03.911Z,56.75
2023-02-16T17:24:35.585Z,48.22
2023-02-16T17:27:04.320Z,46.83
2023-02-16T17:29:34.385Z,42.08
2023-02-16T17:32:03.579Z,42.92
2023-02-16T17:34:32.296Z,42.10
2023-02-16T17:37:02.920Z,41.17
2023-02-16T17:39:31.923Z,43.53
2023-02-16T17:42:00.728Z,39.70
2023-02-16T17:44:29.441Z,39.85
2023-02-16T17:46:59.602Z,39.97
2023-02-16T17:49:28.424Z,42.75
2023-02-16T17:51:59.715Z,41.03
2023-02-16T17:54:28.212Z,46.17
2023-02-16T17:56:57.126Z,49.13
2023-02-16T18:03:09.308Z,49.88
2023-02-16T18:05:38.472Z,43.72
2023-02-16T18:08:07.470Z,45.88
2023-02-16T18:10:39.440Z,53.95
2023-02-16T18:13:09.471Z,44.72
2023-02-16T18:15:38.450Z,45.67
2023-02-16T18:18:08.696Z,43.70
2023-02-16T18:20:37.260Z,44.75
2023-02-16T18:23:05.952Z,45.47
2023-02-16T18:25:34.333Z,49.90
2023-02-16T18:28:02.649Z,52.38
2023-02-16T18:30:31.115Z,42.38
2023-02-16T18:32:59.818Z,47.22
2023-02-16T18:35:31.737Z,46.67
2023-02-16T18:38:00.639Z,45.25
2023-02-16T18:40:28.838Z,47.20
2023-02-16T18:42:58.318Z,45.05
2023-02-16T18:45:26.938Z,45.63
2023-02-16T18:47:55.642Z,45.85
2023-02-16T18:50:23.916Z,46.42
2023-02-16T18:52:53.573Z,46.88
2023-02-16T18:55:21.765Z,43.03
2023-02-16T18:57:50.093Z,41.80
2023-02-16T19:00:20.367Z,42.70
2023-02-16T19:02:49.872Z,47.55
2023-02-16T19:05:18.230Z,44.95
2023-02-16T19:07:47.846Z,50.40
2023-02-16T19:10:18.856Z,46.78
2023-02-16T19:12:47.253Z,54.20
2023-02-16T19:15:15.492Z,45.25
2023-02-16T19:17:44.033Z,40.15
2023-02-16T19:20:16.820Z,42.50
2023-02-16T19:22:45.556Z,42.97
2023-02-16T19:25:13.908Z,45.15
2023-02-16T19:27:43.884Z,43.63
2023-02-16T19:30:13.020Z,43.25
2023-02-16T19:32:42.012Z,44.42
2023-02-16T19:35:11.150Z,45.53
2023-02-16T19:37:39.993Z,55.83
2023-02-16T19:40:10.706Z,48.80
2023-02-16T19:42:39.990Z,46.50
2023-02-16T19:45:10.209Z,45.25
2023-02-16T19:47:38.611Z,45.38
2023-02-16T19:50:07.842Z,53.00
2023-02-16T19:52:36.204Z,54.03
2023-02-16T19:55:04.757Z,48.00
2023-02-16T19:57:33.161Z,48.25
2023-02-16T20:00:03.264Z,49.25
2023-02-16T20:02:41.827Z,62.83
2023-02-16T20:05:11.135Z,89.35
2023-02-16T20:07:39.486Z,69.20
2023-02-16T20:10:08.742Z,61.95
2023-02-16T20:12:37.849Z,53.67
2023-02-16T20:15:07.160Z,47.15
2023-02-16T20:17:35.624Z,49.38
2023-02-16T20:20:06.273Z,48.83
2023-02-16T20:22:35.006Z,45.58
2023-02-16T20:25:03.391Z,46.72
2023-02-16T20:27:31.784Z,45.70
2023-02-16T20:30:00.535Z,48.85
2023-02-16T20:32:29.872Z,42.83
2023-02-16T20:34:58.098Z,46.17
2023-02-16T20:37:28.337Z,44.90
2023-02-16T20:39:56.665Z,41.15
2023-02-16T20:42:24.991Z,47.13
2023-02-16T20:44:53.279Z,48.95
2023-02-16T20:47:21.772Z,47.70
2023-02-16T20:49:49.972Z,47.88
2023-02-16T20:52:18.334Z,47.42
2023-02-16T20:54:47.843Z,46.55
2023-02-16T20:57:26.442Z,44.53
2023-02-16T20:59:55.486Z,44.08
2023-02-16T21:02:23.856Z,47.38
2023-02-16T21:04:52.173Z,47.97
2023-02-16T21:07:21.064Z,47.03
2023-02-16T21:09:50.696Z,43.33
2023-02-16T21:12:19.084Z,43.67
2023-02-16T21:14:47.388Z,44.78
2023-02-16T21:17:15.700Z,42.60
2023-02-16T21:19:45.239Z,45.20
2023-02-16T21:22:13.823Z,45.13
2023-02-16T21:24:43.302Z,40.50
2023-02-16T21:27:13.411Z,39.35
2023-02-16T21:29:41.689Z,42.92
2023-02-16T21:32:10.147Z,43.22
2023-02-16T21:34:38.751Z,41.90
2023-02-16T21:37:07.081Z,42.53
2023-02-16T21:39:53.009Z,45.97
2023-02-16T21:42:22.680Z,41.67
2023-02-16T21:45:10.938Z,40.38
2023-02-16T21:47:56.947Z,39.17
2023-02-16T21:50:25.287Z,41.40
2023-02-16T21:52:54.126Z,41.80
2023-02-16T21:55:40.108Z,42.28
2023-02-16T21:58:10.762Z,39.78
2023-02-16T22:00:39.758Z,45.92
2023-02-16T22:03:09.332Z,44.28
2023-02-16T22:05:37.676Z,46.42
2023-02-16T22:08:06.904Z,43.35
2023-02-16T22:10:36.015Z,43.25
2023-02-16T22:13:05.090Z,44.58
2023-02-16T22:15:36.939Z,45.00
2023-02-16T22:18:05.934Z,47.63
2023-02-16T22:20:34.357Z,44.05
2023-02-16T22:23:03.541Z,42.92
2023-02-16T22:25:31.832Z,42.55
2023-02-16T22:28:00.122Z,40.83
2023-02-16T22:30:28.381Z,42.50
2023-02-16T22:32:58.092Z,41.17
2023-02-16T22:35:26.345Z,41.88
2023-02-16T22:37:54.688Z,42.28
2023-02-16T22:40:22.962Z,44.03
2023-02-16T22:42:51.509Z,40.03
2023-02-16T22:45:19.846Z,40.80
2023-02-16T22:47:48.120Z,40.85
2023-02-16T22:50:17.870Z,44.65
2023-02-16T22:52:46.211Z,43.92
2023-02-16T22:55:14.590Z,43.03
2023-02-16T22:57:42.875Z,40.53
2023-02-16T23:00:14.848Z,42.70
2023-02-16T23:02:43.151Z,43.35
2023-02-16T23:05:11.778Z,47.47
2023-02-16T23:07:41.482Z,44.47
2023-02-16T23:10:09.970Z,41.78
2023-02-16T23:12:38.301Z,43.08
2023-02-16T23:15:06.963Z,47.47
2023-02-16T23:17:35.348Z,45.58
2023-02-16T23:20:04.020Z,44.17
2023-02-16T23:22:32.342Z,45.42
2023-02-16T23:25:19.282Z,43.53
2023-02-16T23:27:47.614Z,42.15
2023-02-16T23:30:15.916Z,48.90
2023-02-16T23:32:44.310Z,43.80
2023-02-16T23:35:12.456Z,46.65
2023-02-16T23:37:40.991Z,45.47
2023-02-16T23:40:11.328Z,45.22
2023-02-16T23:42:40.012Z,43.05
2023-02-16T23:45:08.720Z,42.13
2023-02-16T23:47:37.008Z,44.55
2023-02-16T23:50:05.781Z,44.38
2023-02-16T23:52:34.241Z,41.63
2023-02-16T23:55:02.462Z,39.25
2023-02-16T23:57:32.182Z,36.17
